createdAt,value
2023-02-19T00:00:34.674Z,109.50
2023-02-19T00:01:37.681Z,109.50
2023-02-19T00:02:41.038Z,124.00
2023-02-19T00:04:15.975Z,124.30
2023-02-19T00:05:19.483Z,106.40
2023-02-19T00:06:22.599Z,124.50
2023-02-19T00:07:57.726Z,107.30
2023-02-19T00:09:00.738Z,107.50
2023-02-19T00:10:03.753Z,122.70
2023-02-19T00:11:38.631Z,106.90
2023-02-19T00:12:41.968Z,124.10
2023-02-19T00:13:45.138Z,104.00
2023-02-19T00:15:20.372Z,107.00
2023-02-19T00:16:23.523Z,124.20
2023-02-19T00:17:26.433Z,122.20
2023-02-19T00:19:01.043Z,122.90
2023-02-19T00:20:04.379Z,108.10
2023-02-19T00:21:07.762Z,107.20
2023-02-19T00:22:42.710Z,107.60
2023-02-19T00:23:45.827Z,108.70
2023-02-19T00:24:49.342Z,108.60
2023-02-19T00:26:41.306Z,106.30
2023-02-19T00:27:44.608Z,106.40
2023-02-19T00:28:47.808Z,106.50
2023-02-19T00:30:23.153Z,112.00
2023-02-19T00:31:27.482Z,123.10
2023-02-19T00:32:31.530Z,106.30
2023-02-19T00:34:06.283Z,107.00
2023-02-19T00:35:09.246Z,123.70
2023-02-19T00:36:12.104Z,122.90
2023-02-19T00:37:47.072Z,107.20
2023-02-19T00:38:50.058Z,108.40
2023-02-19T00:39:53.079Z,105.60
2023-02-19T00:41:28.429Z,107.10
2023-02-19T00:42:31.380Z,107.80
2023-02-19T00:43:34.392Z,107.40
2023-02-19T00:45:09.321Z,124.00
2023-02-19T00:46:12.423Z,107.10
2023-02-19T00:47:15.537Z,108.10
2023-02-19T00:48:50.626Z,109.10
2023-02-19T00:49:53.543Z,122.80
2023-02-19T00:50:56.530Z,108.60
2023-02-19T00:52:31.303Z,123.20
2023-02-19T00:53:34.413Z,123.80
2023-02-19T00:54:37.435Z,108.00
2023-02-19T00:56:12.388Z,122.10
2023-02-19T00:57:15.279Z,123.50
2023-02-19T00:58:18.458Z,107.60
2023-02-19T00:59:53.679Z,121.20
2023-02-19T01:00:35.399Z,121.20
2023-02-19T01:01:39.036Z,107.10
2023-02-19T01:02:42.651Z,125.90
2023-02-19T01:04:18.277Z,108.80
2023-02-19T01:05:21.617Z,123.20
2023-02-19T01:06:24.816Z,123.90
2023-02-19T01:07:59.911Z,107.00
2023-02-19T01:09:02.895Z,123.10
2023-02-19T01:10:05.786Z,106.60
2023-02-19T01:11:40.553Z,123.10
2023-02-19T01:12:43.490Z,124.00
2023-02-19T01:13:46.647Z,124.30
2023-02-19T01:15:21.800Z,108.90
2023-02-19T01:16:25.260Z,123.00
2023-02-19T01:17:28.549Z,106.80
2023-02-19T01:19:03.589Z,108.70
2023-02-19T01:20:06.627Z,109.30
2023-02-19T01:21:10.021Z,124.80
2023-02-19T01:22:45.209Z,106.50
2023-02-19T01:23:48.267Z,125.40
2023-02-19T01:24:51.126Z,109.40
2023-02-19T01:26:26.200Z,125.10
2023-02-19T01:27:29.270Z,110.30
2023-02-19T01:28:32.422Z,104.70
2023-02-19T01:30:07.333Z,121.50
2023-02-19T01:31:10.974Z,110.40
2023-02-19T01:32:14.875Z,107.50
2023-02-19T01:33:50.294Z,123.30
2023-02-19T01:34:53.496Z,105.70
2023-02-19T01:35:56.678Z,123.20
2023-02-19T01:37:31.927Z,124.50
2023-02-19T01:38:35.199Z,123.90
2023-02-19T01:39:38.412Z,121.90
2023-02-19T01:41:14.033Z,125.40
2023-02-19T01:42:17.120Z,123.30
2023-02-19T01:43:20.089Z,124.20
2023-02-19T01:44:55.160Z,122.90
2023-02-19T01:45:58.333Z,108.40
2023-02-19T01:47:01.715Z,106.80
2023-02-19T01:48:36.685Z,106.30
2023-02-19T01:49:39.783Z,107.20
2023-02-19T01:50:43.036Z,124.60
2023-02-19T01:52:18.636Z,107.20
2023-02-19T01:53:21.874Z,108.60
2023-02-19T01:54:24.890Z,105.30
2023-02-19T01:56:00.000Z,124.10
2023-02-19T01:57:03.061Z,123.20
2023-02-19T01:58:06.010Z,123.40
2023-02-19T01:59:41.172Z,105.70
2023-02-19T02:00:34.860Z,125.10
2023-02-19T02:01:38.255Z,105.80
2023-02-19T02:02:41.504Z,123.70
2023-02-19T02:04:16.306Z,106.20
2023-02-19T02:05:19.424Z,123.50
2023-02-19T02:06:22.328Z,106.70
2023-02-19T02:07:57.485Z,108.90
2023-02-19T02:09:00.520Z,108.80
2023-02-19T02:10:03.576Z,105.40
2023-02-19T02:11:38.739Z,121.30
2023-02-19T02:12:41.810Z,123.70
2023-02-19T02:13:44.789Z,124.70
2023-02-19T02:15:19.717Z,123.90
2023-02-19T02:16:23.046Z,123.20
2023-02-19T02:17:26.201Z,106.70
2023-02-19T02:19:01.175Z,106.20
2023-02-19T02:20:04.138Z,107.10
2023-02-19T02:21:07.273Z,123.20
2023-02-19T02:22:42.797Z,124.10
2023-02-19T02:23:46.227Z,123.00
2023-02-19T02:24:49.410Z,123.00
2023-02-19T02:26:24.506Z,122.50
2023-02-19T02:27:27.421Z,109.50
2023-02-19T02:28:30.775Z,109.10
2023-02-19T02:30:06.034Z,106.60
2023-02-19T02:31:09.931Z,107.60
2023-02-19T02:32:14.393Z,106.40
2023-02-19T02:33:49.592Z,107.10
2023-02-19T02:34:52.631Z,106.00
2023-02-19T02:35:55.789Z,105.90
2023-02-19T02:37:30.735Z,107.60
2023-02-19T02:38:33.702Z,125.20
2023-02-19T02:39:36.578Z,120.20
2023-02-19T02:41:11.854Z,104.80
2023-02-19T02:42:15.318Z,106.80
2023-02-19T02:43:18.345Z,106.90
2023-02-19T02:44:53.651Z,121.90
2023-02-19T02:45:57.162Z,123.50
2023-02-19T02:47:00.517Z,109.00
2023-02-19T02:48:35.455Z,123.10
2023-02-19T02:49:38.372Z,121.70
2023-02-19T02:50:41.487Z,122.00
2023-02-19T02:52:16.647Z,121.60
2023-02-19T02:53:19.820Z,126.10
2023-02-19T02:54:22.711Z,123.70
2023-02-19T02:56:00.402Z,122.10
2023-02-19T02:57:03.502Z,109.50
2023-02-19T02:58:06.762Z,123.70
2023-02-19T02:59:42.026Z,122.00
2023-02-19T03:00:34.360Z,125.30
2023-02-19T03:01:37.732Z,108.70
2023-02-19T03:02:41.105Z,123.70
2023-02-19T03:04:16.153Z,108.20
2023-02-19T03:05:19.279Z,108.00
2023-02-19T03:06:22.138Z,109.40
2023-02-19T03:07:57.142Z,108.10
2023-02-19T03:09:00.220Z,108.90
2023-02-19T03:10:06.387Z,109.40
2023-02-19T03:11:41.237Z,123.00
2023-02-19T03:12:44.207Z,123.60
2023-02-19T03:13:47.208Z,109.50
2023-02-19T03:15:22.444Z,120.50
2023-02-19T03:16:25.480Z,109.90
2023-02-19T03:17:28.940Z,123.50
2023-02-19T03:19:04.122Z,111.10
2023-02-19T03:20:07.209Z,124.20
2023-02-19T03:21:10.559Z,124.50
2023-02-19T03:22:45.574Z,123.50
2023-02-19T03:23:48.688Z,122.40
2023-02-19T03:24:51.901Z,123.10
2023-02-19T03:26:26.814Z,105.70
2023-02-19T03:27:29.919Z,108.20
2023-02-19T03:28:32.870Z,108.80
2023-02-19T03:30:07.887Z,106.50
2023-02-19T03:31:11.841Z,123.10
2023-02-19T03:32:16.135Z,106.40
2023-02-19T03:33:51.420Z,109.30
2023-02-19T03:34:54.654Z,108.10
2023-02-19T03:35:57.637Z,124.20
2023-02-19T03:37:32.769Z,107.70
2023-02-19T03:38:35.930Z,112.00
2023-02-19T03:39:39.036Z,108.30
2023-02-19T03:41:14.284Z,125.50
2023-02-19T03:42:17.273Z,124.40
2023-02-19T03:43:20.233Z,111.50
2023-02-19T03:44:55.243Z,106.80
2023-02-19T03:45:58.660Z,109.30
2023-02-19T03:47:01.918Z,110.80
2023-02-19T03:48:36.978Z,109.70
2023-02-19T03:49:40.025Z,123.60
2023-02-19T03:50:46.439Z,109.30
2023-02-19T03:52:21.706Z,108.80
2023-02-19T03:53:24.769Z,107.80
2023-02-19T03:54:27.947Z,125.90
2023-02-19T03:56:03.050Z,124.30
2023-02-19T03:57:06.029Z,122.40
2023-02-19T03:58:09.251Z,110.20
2023-02-19T03:59:44.023Z,108.60
2023-02-19T04:00:34.974Z,106.80
2023-02-19T04:01:38.233Z,125.20
2023-02-19T04:02:41.605Z,123.50
2023-02-19T04:04:16.841Z,109.30
2023-02-19T04:05:20.326Z,110.50
2023-02-19T04:06:23.326Z,123.10
2023-02-19T04:07:58.588Z,109.00
2023-02-19T04:09:01.515Z,124.90
2023-02-19T04:10:04.659Z,109.70
2023-02-19T04:11:39.758Z,123.40
2023-02-19T04:12:42.846Z,107.90
2023-02-19T04:13:45.753Z,124.50
2023-02-19T04:15:20.650Z,122.50
2023-02-19T04:16:23.729Z,109.10
2023-02-19T04:17:26.831Z,124.80
2023-02-19T04:19:01.797Z,124.60
2023-02-19T04:20:04.765Z,123.70
2023-02-19T04:21:08.061Z,124.50
2023-02-19T04:22:43.218Z,108.50
2023-02-19T04:23:46.280Z,125.10
2023-02-19T04:24:49.270Z,108.10
2023-02-19T04:26:24.436Z,109.70
2023-02-19T04:27:27.562Z,124.90
2023-02-19T04:28:30.707Z,110.60
2023-02-19T04:30:06.017Z,109.10
2023-02-19T04:31:09.825Z,123.90
2023-02-19T04:32:13.418Z,125.10
2023-02-19T04:33:48.460Z,110.20
2023-02-19T04:34:53.970Z,122.70
2023-02-19T04:35:57.309Z,126.00
2023-02-19T04:37:32.658Z,109.90
2023-02-19T04:38:35.944Z,109.20
2023-02-19T04:39:39.300Z,109.30
2023-02-19T04:41:14.972Z,124.20
2023-02-19T04:42:18.030Z,109.40
2023-02-19T04:43:21.079Z,124.90
2023-02-19T04:44:56.298Z,123.90
2023-02-19T04:45:59.574Z,109.70
2023-02-19T04:47:05.664Z,109.80
2023-02-19T04:48:40.628Z,125.20
2023-02-19T04:49:43.560Z,108.50
2023-02-19T04:50:46.729Z,109.70
2023-02-19T04:52:22.169Z,110.20
2023-02-19T04:53:25.439Z,110.20
2023-02-19T04:54:28.324Z,125.50
2023-02-19T04:56:03.433Z,111.90
2023-02-19T04:57:06.427Z,109.60
2023-02-19T04:58:09.746Z,108.70
2023-02-19T04:59:44.745Z,127.40
2023-02-19T05:00:34.871Z,111.40
2023-02-19T05:01:38.483Z,125.90
2023-02-19T05:02:41.732Z,112.60
2023-02-19T05:04:17.140Z,126.20
2023-02-19T05:06:04.998Z,127.70
2023-02-19T05:07:08.302Z,124.60
2023-02-19T05:08:11.213Z,126.50
2023-02-19T05:09:46.375Z,110.60
2023-02-19T05:10:49.362Z,127.80
2023-02-19T05:11:52.409Z,127.10
2023-02-19T05:13:27.753Z,127.80
2023-02-19T05:14:31.026Z,112.40
2023-02-19T05:15:34.259Z,127.50
2023-02-19T05:17:09.498Z,111.80
2023-02-19T05:18:12.522Z,110.50
2023-02-19T05:19:15.573Z,127.10
2023-02-19T05:20:50.625Z,126.40
2023-02-19T05:21:53.687Z,125.50
2023-02-19T05:22:56.590Z,127.90
2023-02-19T05:24:31.296Z,111.60
2023-02-19T05:25:34.577Z,126.20
2023-02-19T05:26:37.499Z,128.60
2023-02-19T05:28:14.941Z,127.80
2023-02-19T05:29:17.959Z,111.90
2023-02-19T05:30:21.148Z,111.70
2023-02-19T05:31:57.336Z,112.80
2023-02-19T05:33:00.716Z,127.80
2023-02-19T05:34:03.930Z,111.90
2023-02-19T05:35:38.877Z,128.80
2023-02-19T05:36:42.145Z,129.50
2023-02-19T05:37:45.017Z,116.10
2023-02-19T05:39:20.169Z,112.80
2023-02-19T05:40:23.329Z,113.00
2023-02-19T05:41:26.918Z,127.40
2023-02-19T05:43:01.973Z,113.00
2023-02-19T05:44:04.904Z,130.30
2023-02-19T05:45:08.111Z,114.00
2023-02-19T05:46:43.406Z,114.80
2023-02-19T05:47:46.591Z,129.20
2023-02-19T05:48:49.538Z,129.70
2023-02-19T05:50:24.312Z,116.30
2023-02-19T05:51:27.790Z,129.10
2023-02-19T05:52:30.678Z,129.50
2023-02-19T05:54:05.807Z,113.50
2023-02-19T05:55:08.910Z,129.70
2023-02-19T05:56:12.061Z,115.40
2023-02-19T05:57:49.404Z,129.60
2023-02-19T05:58:52.342Z,116.10
2023-02-19T05:59:55.638Z,116.40
2023-02-19T06:00:34.570Z,116.40
2023-02-19T06:01:37.631Z,130.00
2023-02-19T06:02:41.112Z,113.80
2023-02-19T06:04:19.911Z,115.10
2023-02-19T06:05:22.985Z,129.90
2023-02-19T06:06:25.996Z,117.10
2023-02-19T06:08:01.154Z,117.10
2023-02-19T06:09:04.119Z,129.70
2023-02-19T06:10:06.990Z,132.00
2023-02-19T06:11:41.959Z,117.20
2023-02-19T06:12:45.126Z,129.90
2023-02-19T06:13:48.132Z,117.70
2023-02-19T06:15:22.984Z,131.30
2023-02-19T06:16:26.280Z,128.60
2023-02-19T06:17:29.494Z,116.60
2023-02-19T06:19:04.342Z,117.60
2023-02-19T06:20:07.427Z,115.60
2023-02-19T06:21:10.578Z,131.00
2023-02-19T06:22:45.928Z,130.40
2023-02-19T06:23:48.986Z,130.80
2023-02-19T06:24:51.846Z,117.00
2023-02-19T06:26:27.088Z,130.00
2023-02-19T06:27:29.884Z,117.60
2023-02-19T06:28:32.993Z,133.00
2023-02-19T06:30:07.804Z,117.40
2023-02-19T06:31:14.676Z,135.10
2023-02-19T06:32:19.111Z,119.80
2023-02-19T06:33:54.285Z,134.30
2023-02-19T06:34:57.590Z,133.50
2023-02-19T06:36:00.522Z,120.10
2023-02-19T06:37:35.600Z,119.00
2023-02-19T06:38:38.798Z,119.00
2023-02-19T06:39:41.804Z,120.40
2023-02-19T06:41:17.046Z,119.80
2023-02-19T06:42:19.936Z,120.20
2023-02-19T06:43:22.921Z,136.20
2023-02-19T06:44:57.883Z,133.60
2023-02-19T06:46:00.771Z,134.40
2023-02-19T06:47:04.163Z,120.10
2023-02-19T06:48:39.488Z,119.70
2023-02-19T06:49:42.675Z,133.80
2023-02-19T06:50:45.718Z,122.00
2023-02-19T06:52:21.096Z,121.30
2023-02-19T06:53:23.985Z,134.70
2023-02-19T06:54:27.088Z,134.20
2023-02-19T06:56:02.577Z,134.60
2023-02-19T06:57:09.357Z,133.80
2023-02-19T06:58:12.282Z,136.50
2023-02-19T06:59:47.599Z,134.80
2023-02-19T07:00:35.339Z,135.30
2023-02-19T07:01:38.369Z,135.40
2023-02-19T07:02:41.279Z,133.70
2023-02-19T07:04:16.647Z,135.70
2023-02-19T07:05:19.777Z,134.20
2023-02-19T07:06:22.917Z,134.60
2023-02-19T07:07:57.939Z,135.70
2023-02-19T07:09:00.802Z,135.60
2023-02-19T07:10:04.066Z,134.80
2023-02-19T07:11:38.912Z,135.60
2023-02-19T07:12:42.226Z,123.60
2023-02-19T07:13:45.211Z,120.30
2023-02-19T07:15:20.001Z,136.00
2023-02-19T07:16:23.593Z,137.70
2023-02-19T07:17:26.846Z,135.70
2023-02-19T07:19:01.786Z,136.30
2023-02-19T07:20:05.073Z,125.50
2023-02-19T07:21:08.274Z,138.20
2023-02-19T07:22:43.461Z,138.10
2023-02-19T07:23:46.440Z,124.80
2023-02-19T07:24:49.336Z,124.20
2023-02-19T07:26:24.462Z,124.00
2023-02-19T07:27:27.373Z,124.90
2023-02-19T07:28:30.440Z,137.20
2023-02-19T07:30:05.756Z,126.20
2023-02-19T07:31:09.462Z,123.70
2023-02-19T07:32:13.611Z,138.60
2023-02-19T07:33:48.613Z,136.60
2023-02-19T07:34:51.687Z,125.60
2023-02-19T07:35:54.692Z,138.60
2023-02-19T07:37:29.658Z,138.20
2023-02-19T07:38:32.761Z,125.80
2023-02-19T07:39:35.993Z,139.70
2023-02-19T07:41:11.134Z,139.20
2023-02-19T07:42:14.197Z,126.50
2023-02-19T07:43:17.203Z,141.20
2023-02-19T07:44:52.151Z,126.60
2023-02-19T07:45:58.175Z,140.70
2023-02-19T07:47:01.301Z,125.90
2023-02-19T07:48:36.601Z,141.40
2023-02-19T07:49:39.578Z,138.10
2023-02-19T07:50:42.689Z,128.60
2023-02-19T07:52:18.349Z,141.20
2023-02-19T07:53:21.197Z,125.40
2023-02-19T07:54:24.297Z,125.50
2023-02-19T07:55:59.213Z,140.00
2023-02-19T07:57:02.503Z,140.90
2023-02-19T07:58:06.198Z,141.00
2023-02-19T07:59:41.333Z,127.10
2023-02-19T08:00:34.589Z,140.70
2023-02-19T08:01:38.282Z,127.30
2023-02-19T08:02:41.226Z,127.20
2023-02-19T08:04:16.250Z,141.10
2023-02-19T08:05:19.780Z,127.10
2023-02-19T08:06:23.015Z,129.50
2023-02-19T08:07:58.032Z,127.50
2023-02-19T08:09:02.784Z,142.10
2023-02-19T08:10:05.775Z,142.10
2023-02-19T08:11:40.881Z,142.50
2023-02-19T08:12:44.390Z,129.30
2023-02-19T08:13:47.410Z,131.10
2023-02-19T08:15:22.607Z,129.70
2023-02-19T08:16:59.501Z,130.00
2023-02-19T08:18:02.773Z,126.80
2023-02-19T08:19:37.641Z,141.50
2023-02-19T08:20:40.696Z,142.40
2023-02-19T08:21:45.693Z,142.50
2023-02-19T08:23:20.701Z,131.00
2023-02-19T08:24:23.981Z,128.20
2023-02-19T08:25:27.027Z,132.60
2023-02-19T08:27:02.152Z,143.90
2023-02-19T08:28:05.068Z,145.20
2023-02-19T08:29:07.978Z,144.50
2023-02-19T08:30:43.951Z,128.90
2023-02-19T08:31:48.267Z,131.10
2023-02-19T08:32:51.581Z,143.50
2023-02-19T08:34:26.441Z,145.10
2023-02-19T08:35:29.559Z,145.10
2023-02-19T08:36:32.441Z,143.60
2023-02-19T08:38:07.328Z,131.90
2023-02-19T08:39:10.373Z,132.60
2023-02-19T08:40:13.623Z,134.60
2023-02-19T08:41:48.730Z,143.40
2023-02-19T08:42:51.600Z,129.80
2023-02-19T08:43:54.736Z,130.90
2023-02-19T08:45:29.854Z,144.00
2023-02-19T08:46:34.476Z,130.90
2023-02-19T08:47:37.755Z,132.70
2023-02-19T08:49:12.720Z,145.70
2023-02-19T08:50:15.760Z,143.70
2023-02-19T08:51:19.182Z,132.90
2023-02-19T08:52:54.244Z,129.80
2023-02-19T08:53:57.333Z,144.20
2023-02-19T08:55:00.958Z,142.40
2023-02-19T08:56:36.717Z,132.70
2023-02-19T08:57:39.817Z,133.70
2023-02-19T08:58:43.002Z,144.40
2023-02-19T09:00:34.677Z,132.70
2023-02-19T09:01:38.849Z,144.80
2023-02-19T09:02:42.446Z,145.00
2023-02-19T09:04:17.730Z,131.80
2023-02-19T09:05:20.736Z,133.10
2023-02-19T09:06:24.183Z,148.40
2023-02-19T09:07:59.040Z,144.30
2023-02-19T09:09:02.177Z,133.50
2023-02-19T09:10:05.287Z,145.00
2023-02-19T09:11:40.016Z,144.10
2023-02-19T09:12:45.814Z,143.50
2023-02-19T09:13:48.769Z,144.80
2023-02-19T09:15:23.808Z,147.20
2023-02-19T09:16:27.001Z,133.50
2023-02-19T09:17:30.223Z,135.10
2023-02-19T09:19:05.267Z,142.60
2023-02-19T09:20:08.203Z,134.30
2023-02-19T09:21:11.553Z,146.00
2023-02-19T09:22:46.654Z,133.70
2023-02-19T09:23:49.633Z,145.50
2023-02-19T09:24:52.685Z,143.50
2023-02-19T09:26:27.770Z,145.90
2023-02-19T09:27:31.030Z,132.60
2023-02-19T09:28:34.111Z,145.60
2023-02-19T09:30:09.049Z,147.90
2023-02-19T09:31:13.204Z,144.80
2023-02-19T09:32:19.109Z,145.80
2023-02-19T09:33:54.516Z,144.00
2023-02-19T09:34:57.569Z,147.50
2023-02-19T09:36:00.729Z,150.60
2023-02-19T09:37:35.461Z,134.10
2023-02-19T09:38:38.638Z,147.70
2023-02-19T09:39:41.717Z,146.20
2023-02-19T09:41:17.318Z,134.70
2023-02-19T09:42:20.540Z,136.60
2023-02-19T09:43:24.704Z,149.50
2023-02-19T09:45:00.016Z,137.40
2023-02-19T09:46:03.095Z,137.60
2023-02-19T09:47:06.094Z,152.00
2023-02-19T09:48:41.305Z,140.40
2023-02-19T09:49:44.121Z,153.90
2023-02-19T09:50:47.247Z,152.40
2023-02-19T09:52:22.071Z,137.50
2023-02-19T09:53:25.079Z,138.80
2023-02-19T09:54:27.930Z,153.50
2023-02-19T09:56:05.949Z,142.10
2023-02-19T09:57:09.709Z,143.70
2023-02-19T09:58:12.927Z,156.90
2023-02-19T09:59:47.960Z,163.30
2023-02-19T10:00:34.679Z,165.80
2023-02-19T10:01:37.802Z,165.60
2023-02-19T10:02:40.944Z,162.40
2023-02-19T10:04:15.671Z,153.30
2023-02-19T10:05:19.095Z,162.90
2023-02-19T10:06:22.740Z,163.70
2023-02-19T10:07:57.559Z,175.70
2023-02-19T10:09:00.614Z,149.80
2023-02-19T10:10:03.448Z,155.30
2023-02-19T10:11:38.489Z,158.60
2023-02-19T10:12:41.371Z,155.50
2023-02-19T10:13:44.572Z,142.40
2023-02-19T10:15:19.506Z,160.50
2023-02-19T10:16:22.677Z,153.60
2023-02-19T10:17:25.744Z,159.90
2023-02-19T10:19:00.893Z,148.20
2023-02-19T10:20:04.104Z,147.10
2023-02-19T10:21:07.069Z,154.80
2023-02-19T10:22:42.313Z,151.30
2023-02-19T10:23:45.296Z,154.50
2023-02-19T10:24:49.809Z,141.50
2023-02-19T10:26:24.737Z,134.00
2023-02-19T10:27:27.633Z,146.60
2023-02-19T10:28:30.564Z,136.30
2023-02-19T10:30:05.718Z,155.80
2023-02-19T10:31:09.314Z,153.70
2023-02-19T10:32:13.545Z,170.30
2023-02-19T10:33:48.613Z,151.60
2023-02-19T10:34:51.788Z,164.70
2023-02-19T10:35:54.512Z,149.90
2023-02-19T10:37:29.950Z,137.60
2023-02-19T10:38:33.029Z,143.40
2023-02-19T10:39:36.097Z,151.00
2023-02-19T10:41:11.413Z,155.60
2023-02-19T10:42:14.577Z,155.70
2023-02-19T10:43:17.612Z,148.40
2023-02-19T10:44:52.490Z,153.60
2023-02-19T10:45:55.414Z,149.50
2023-02-19T10:46:58.748Z,149.10
2023-02-19T10:48:33.673Z,151.70
2023-02-19T10:49:36.643Z,146.70
2023-02-19T10:50:39.507Z,143.70
2023-02-19T10:52:14.798Z,140.90
2023-02-19T10:53:17.779Z,141.50
2023-02-19T10:54:20.693Z,138.30
2023-02-19T10:55:55.783Z,150.00
2023-02-19T10:56:58.845Z,135.70
2023-02-19T10:58:02.090Z,135.40
2023-02-19T10:59:36.867Z,135.60
2023-02-19T11:00:34.652Z,150.40
2023-02-19T11:01:37.996Z,138.30
2023-02-19T11:02:41.132Z,150.40
2023-02-19T11:04:16.228Z,145.10
2023-02-19T11:05:19.294Z,149.60
2023-02-19T11:06:22.439Z,148.70
2023-02-19T11:07:57.531Z,165.90
2023-02-19T11:09:00.554Z,147.60
2023-02-19T11:10:03.677Z,146.50
2023-02-19T11:11:38.970Z,147.60
2023-02-19T11:12:42.208Z,146.00
2023-02-19T11:13:45.443Z,149.20
2023-02-19T11:15:20.384Z,154.80
2023-02-19T11:16:23.848Z,157.10
2023-02-19T11:17:26.977Z,156.00
2023-02-19T11:19:02.940Z,149.40
2023-02-19T11:20:05.968Z,143.40
2023-02-19T11:21:09.428Z,162.60
2023-02-19T11:22:44.634Z,158.90
2023-02-19T11:23:47.815Z,141.40
2023-02-19T11:24:51.795Z,144.30
2023-02-19T11:26:29.160Z,149.40
2023-02-19T11:27:32.097Z,159.40
2023-02-19T11:28:35.076Z,159.50
2023-02-19T11:30:10.136Z,151.50
2023-02-19T11:31:13.983Z,151.10
2023-02-19T11:32:18.025Z,135.70
2023-02-19T11:33:53.633Z,150.00
2023-02-19T11:34:56.653Z,150.80
2023-02-19T11:35:59.605Z,136.70
2023-02-19T11:37:37.495Z,150.00
2023-02-19T11:38:40.477Z,151.10
2023-02-19T11:39:43.522Z,145.20
2023-02-19T11:41:18.809Z,155.00
2023-02-19T11:42:21.771Z,158.50
2023-02-19T11:43:27.063Z,158.40
2023-02-19T11:45:01.968Z,154.80
2023-02-19T11:46:05.100Z,143.10
2023-02-19T11:47:08.342Z,156.50
2023-02-19T11:48:43.168Z,140.20
2023-02-19T11:49:46.265Z,139.90
2023-02-19T11:50:49.282Z,154.90
2023-02-19T11:52:24.106Z,145.60
2023-02-19T11:53:27.055Z,141.30
2023-02-19T11:54:30.207Z,139.30
2023-02-19T11:56:05.167Z,139.50
2023-02-19T11:57:08.164Z,139.20
2023-02-19T11:58:11.141Z,152.10
2023-02-19T11:59:46.077Z,149.50
2023-02-19T12:00:35.212Z,139.20
2023-02-19T12:01:38.509Z,155.40
2023-02-19T12:02:41.984Z,157.60
2023-02-19T12:04:16.877Z,160.20
2023-02-19T12:05:20.214Z,148.20
2023-02-19T12:06:23.840Z,142.70
2023-02-19T12:07:58.830Z,144.10
2023-02-19T12:09:01.876Z,152.90
2023-02-19T12:10:04.943Z,156.70
2023-02-19T12:11:39.820Z,163.80
2023-02-19T12:12:43.702Z,160.40
2023-02-19T12:13:46.572Z,157.00
2023-02-19T12:15:21.576Z,140.20
2023-02-19T12:16:25.159Z,140.60
2023-02-19T12:17:28.222Z,161.90
2023-02-19T12:19:03.082Z,144.10
2023-02-19T12:20:06.354Z,160.80
2023-02-19T12:21:09.869Z,155.40
2023-02-19T12:22:45.060Z,153.20
2023-02-19T12:23:48.077Z,142.10
2023-02-19T12:24:51.119Z,152.80
2023-02-19T12:26:26.663Z,165.50
2023-02-19T12:27:29.439Z,147.90
2023-02-19T12:28:32.616Z,155.30
2023-02-19T12:30:07.541Z,145.40
2023-02-19T12:31:11.116Z,160.50
2023-02-19T12:32:14.868Z,147.20
2023-02-19T12:33:49.859Z,142.80
2023-02-19T12:34:53.049Z,145.00
2023-02-19T12:35:56.214Z,146.70
2023-02-19T12:37:31.144Z,156.00
2023-02-19T12:38:34.514Z,158.10
2023-02-19T12:39:37.724Z,155.50
2023-02-19T12:41:12.566Z,155.40
2023-02-19T12:42:15.894Z,148.60
2023-02-19T12:43:19.156Z,157.80
2023-02-19T12:44:54.186Z,143.30
2023-02-19T12:45:57.374Z,154.50
2023-02-19T12:47:00.771Z,143.10
2023-02-19T12:48:35.700Z,153.30
2023-02-19T12:49:38.530Z,142.90
2023-02-19T12:50:44.573Z,138.90
2023-02-19T12:52:19.536Z,137.90
2023-02-19T12:53:22.781Z,151.20
2023-02-19T12:54:25.547Z,138.60
2023-02-19T12:56:03.551Z,139.10
2023-02-19T12:57:07.091Z,156.30
2023-02-19T12:58:10.424Z,143.10
2023-02-19T12:59:45.727Z,153.60
2023-02-19T13:00:34.898Z,145.10
2023-02-19T13:01:38.683Z,141.50
2023-02-19T13:02:42.197Z,154.40
2023-02-19T13:04:17.085Z,144.80
2023-02-19T13:05:20.164Z,146.50
2023-02-19T13:06:26.856Z,153.90
2023-02-19T13:08:01.816Z,151.40
2023-02-19T13:09:28.269Z,142.90
2023-02-19T13:10:31.375Z,156.20
2023-02-19T13:12:06.762Z,166.60
2023-02-19T13:13:09.643Z,157.00
2023-02-19T13:14:12.746Z,159.70
2023-02-19T13:15:47.900Z,155.20
2023-02-19T13:16:51.289Z,138.80
2023-02-19T13:17:54.289Z,135.10
2023-02-19T13:19:31.470Z,152.60
2023-02-19T13:20:34.624Z,153.70
2023-02-19T13:21:40.690Z,155.20
2023-02-19T13:23:15.571Z,154.90
2023-02-19T13:24:18.505Z,156.50
2023-02-19T13:25:21.426Z,156.70
2023-02-19T13:26:58.186Z,147.10
2023-02-19T13:28:04.302Z,146.40
2023-02-19T13:29:07.417Z,158.10
2023-02-19T13:30:42.925Z,165.50
2023-02-19T13:31:47.167Z,163.30
2023-02-19T13:32:50.303Z,161.60
2023-02-19T13:34:25.098Z,147.90
2023-02-19T13:35:28.644Z,146.80
2023-02-19T13:36:31.735Z,157.60
2023-02-19T13:39:09.705Z,158.10
2023-02-19T13:40:12.781Z,154.60
2023-02-19T13:41:47.636Z,148.10
2023-02-19T13:42:50.622Z,203.10
2023-02-19T13:43:53.894Z,265.80
2023-02-19T13:45:29.138Z,269.40
2023-02-19T13:46:32.608Z,176.00
2023-02-19T13:47:35.492Z,174.00
2023-02-19T13:49:10.385Z,147.60
2023-02-19T13:50:14.215Z,149.20
2023-02-19T13:51:17.505Z,156.40
2023-02-19T13:52:52.714Z,191.50
2023-02-19T13:53:55.657Z,192.50
2023-02-19T13:54:58.744Z,174.70
2023-02-19T13:56:33.615Z,190.90
2023-02-19T13:57:36.759Z,263.40
2023-02-19T13:58:39.675Z,262.60
2023-02-19T14:00:34.285Z,164.50
2023-02-19T14:01:37.824Z,147.90
2023-02-19T14:02:41.287Z,154.30
2023-02-19T14:04:16.416Z,143.10
2023-02-19T14:05:19.398Z,146.50
2023-02-19T14:06:22.315Z,169.60
2023-02-19T14:07:58.139Z,178.40
2023-02-19T14:09:01.027Z,155.90
2023-02-19T14:10:04.055Z,153.70
2023-02-19T14:11:38.714Z,149.30
2023-02-19T14:12:41.857Z,183.40
2023-02-19T14:13:44.905Z,176.60
2023-02-19T14:15:19.918Z,159.10
2023-02-19T14:16:23.422Z,146.90
2023-02-19T14:17:26.295Z,158.30
2023-02-19T14:19:01.352Z,159.20
2023-02-19T14:20:04.302Z,154.20
2023-02-19T14:21:07.723Z,152.60
2023-02-19T14:22:42.908Z,161.80
2023-02-19T14:23:47.003Z,148.30
2023-02-19T14:24:50.096Z,161.40
2023-02-19T14:26:25.083Z,155.40
2023-02-19T14:27:28.064Z,149.40
2023-02-19T14:28:31.043Z,167.60
2023-02-19T14:30:06.401Z,159.30
2023-02-19T14:31:10.078Z,161.50
2023-02-19T14:32:16.042Z,157.90
2023-02-19T14:34:08.577Z,144.60
2023-02-19T14:35:11.564Z,151.10
2023-02-19T14:36:14.854Z,154.00
2023-02-19T14:37:49.788Z,151.30
2023-02-19T14:38:53.043Z,148.50
2023-02-19T14:39:56.091Z,152.10
2023-02-19T14:41:31.373Z,151.00
2023-02-19T14:42:34.583Z,144.30
2023-02-19T14:43:37.434Z,163.30
2023-02-19T14:45:12.426Z,158.20
2023-02-19T14:46:15.679Z,157.60
2023-02-19T14:47:18.629Z,143.20
2023-02-19T14:48:53.890Z,151.90
2023-02-19T14:49:56.825Z,142.00
2023-02-19T14:51:00.049Z,146.00
2023-02-19T14:52:35.068Z,159.00
2023-02-19T14:53:38.269Z,158.30
2023-02-19T14:54:41.724Z,147.50
2023-02-19T14:56:16.914Z,141.90
2023-02-19T14:57:19.898Z,152.60
2023-02-19T14:58:23.083Z,140.40
2023-02-19T14:59:58.245Z,155.90
2023-02-19T15:00:36.794Z,155.90
2023-02-19T15:01:40.076Z,154.10
2023-02-19T15:02:43.289Z,147.60
2023-02-19T15:04:18.547Z,155.80
2023-02-19T15:05:21.710Z,153.90
2023-02-19T15:06:24.935Z,140.20
2023-02-19T15:08:00.113Z,141.20
2023-02-19T15:09:03.225Z,136.50
2023-02-19T15:10:09.997Z,139.90
2023-02-19T15:11:45.192Z,138.60
2023-02-19T15:12:48.305Z,145.70
2023-02-19T15:13:51.341Z,141.20
2023-02-19T15:15:26.377Z,147.50
2023-02-19T15:16:31.553Z,156.20
2023-02-19T15:17:34.781Z,156.50
2023-02-19T15:19:09.758Z,156.50
2023-02-19T15:20:12.745Z,154.40